createdAt,value
2023-02-09T00:02:01.678Z,56.19
2023-02-09T00:04:33.156Z,56.24
2023-02-09T00:07:05.717Z,56.04
2023-02-09T00:09:36.373Z,56.02
2023-02-09T00:12:36.529Z,56.19
2023-02-09T00:15:09.008Z,56.40
2023-02-09T00:17:43.015Z,56.46
2023-02-09T00:20:12.428Z,56.70
2023-02-09T00:22:44.720Z,56.49
2023-02-09T00:25:14.342Z,56.60
2023-02-09T00:27:44.695Z,56.79
2023-02-09T00:30:14.012Z,56.86
2023-02-09T00:32:47.912Z,56.70
2023-02-09T00:35:19.742Z,56.80
2023-02-09T00:37:50.432Z,56.72
2023-02-09T00:40:23.003Z,56.91
2023-02-09T00:42:52.704Z,57.05
2023-02-09T00:45:51.610Z,56.95
2023-02-09T00:48:22.160Z,56.99
2023-02-09T00:50:53.714Z,57.09
2023-02-09T00:53:24.729Z,56.96
2023-02-09T00:55:53.797Z,56.99
2023-02-09T00:58:25.138Z,56.85
2023-02-09T01:00:55.657Z,56.92
2023-02-09T01:03:25.233Z,57.04
2023-02-09T01:05:58.737Z,57.03
2023-02-09T01:08:30.627Z,56.93
2023-02-09T01:11:00.562Z,56.91
2023-02-09T01:13:30.458Z,57.08
2023-02-09T01:16:01.283Z,57.02
2023-02-09T01:18:32.595Z,57.12
2023-02-09T01:21:03.614Z,57.44
2023-02-09T01:23:36.132Z,57.61
2023-02-09T01:26:06.769Z,57.68
2023-02-09T01:28:38.181Z,57.70
2023-02-09T01:31:18.056Z,57.66
2023-02-09T01:33:48.796Z,57.83
2023-02-09T01:36:19.717Z,57.95
2023-02-09T01:38:52.876Z,58.01
2023-02-09T01:41:23.335Z,58.19
2023-02-09T01:43:53.093Z,58.07
2023-02-09T01:46:26.190Z,58.07
2023-02-09T01:49:10.661Z,58.09
2023-02-09T01:51:46.531Z,57.94
2023-02-09T01:54:22.899Z,58.20
2023-02-09T01:56:57.596Z,58.11
2023-02-09T01:59:27.262Z,58.51
2023-02-09T02:01:58.072Z,58.50
2023-02-09T02:04:28.204Z,58.54
2023-02-09T02:07:04.648Z,58.42
2023-02-09T02:09:35.553Z,58.49
2023-02-09T02:12:06.198Z,58.71
2023-02-09T02:14:38.481Z,58.47
2023-02-09T02:17:10.485Z,58.61
2023-02-09T02:20:05.167Z,58.53
2023-02-09T02:22:34.854Z,58.76
2023-02-09T02:25:22.780Z,58.83
2023-02-09T02:28:10.943Z,58.82
2023-02-09T02:30:58.592Z,59.07
2023-02-09T02:33:32.313Z,58.88
2023-02-09T02:36:01.362Z,58.91
2023-02-09T02:38:48.114Z,58.83
2023-02-09T02:41:21.803Z,58.90
2023-02-09T02:44:03.901Z,59.01
2023-02-09T02:46:45.194Z,58.87
2023-02-09T02:49:30.241Z,58.70
2023-02-09T02:52:03.968Z,58.93
2023-02-09T02:54:45.295Z,58.78
2023-02-09T02:57:21.296Z,59.32
2023-02-09T02:59:54.109Z,59.05
2023-02-09T03:02:37.603Z,58.95
2023-02-09T03:05:09.589Z,58.97
2023-02-09T03:07:39.886Z,58.94
2023-02-09T03:10:28.124Z,59.04
2023-02-09T03:13:27.672Z,59.04
2023-02-09T03:16:19.776Z,59.28
2023-02-09T03:55:34.860Z,59.43
2023-02-09T03:58:05.849Z,59.60
2023-02-09T04:00:36.295Z,59.71
2023-02-09T04:03:08.161Z,59.68
2023-02-09T04:05:37.943Z,59.64
2023-02-09T04:08:09.970Z,59.62
2023-02-09T04:10:40.914Z,59.73
2023-02-09T04:13:11.247Z,59.72
2023-02-09T04:15:41.897Z,59.75
2023-02-09T04:18:12.256Z,59.85
2023-02-09T04:20:43.747Z,59.82
2023-02-09T04:23:13.813Z,59.96
2023-02-09T04:25:43.907Z,59.97
2023-02-09T04:28:15.788Z,59.84
2023-02-09T04:30:45.453Z,59.92
2023-02-09T04:33:17.311Z,59.99
2023-02-09T04:35:46.704Z,59.88
2023-02-09T04:38:19.781Z,60.04
2023-02-09T04:40:50.581Z,59.90
2023-02-09T04:43:20.567Z,59.92
2023-02-09T04:45:51.923Z,59.96
2023-02-09T04:48:22.706Z,59.99
2023-02-09T04:50:52.861Z,60.08
2023-02-09T04:53:23.727Z,59.99
2023-02-09T04:55:56.008Z,59.94
2023-02-09T04:58:43.671Z,60.11
2023-02-09T05:01:17.669Z,60.02
2023-02-09T05:03:48.753Z,60.09
2023-02-09T05:06:20.047Z,60.14
2023-02-09T05:08:50.595Z,60.06
2023-02-09T05:11:19.894Z,60.21
2023-02-09T05:13:51.666Z,60.27
2023-02-09T05:16:21.898Z,60.41
2023-02-09T05:18:51.539Z,60.33
2023-02-09T05:21:23.880Z,60.24
2023-02-09T05:27:22.450Z,60.37
2023-02-09T05:29:52.343Z,60.37
2023-02-09T05:32:21.461Z,60.40
2023-02-09T05:34:53.614Z,60.41
2023-02-09T05:37:23.702Z,60.28
2023-02-09T05:39:54.833Z,60.62
2023-02-09T05:42:29.569Z,60.51
2023-02-09T05:45:03.119Z,60.44
2023-02-09T05:47:33.383Z,60.59
2023-02-09T05:50:03.038Z,60.73
2023-02-09T05:52:34.835Z,60.70
2023-02-09T05:55:04.994Z,60.69
2023-02-09T05:57:35.471Z,60.58
2023-02-09T06:00:06.091Z,60.71
2023-02-09T06:02:42.940Z,60.59
2023-02-09T06:05:14.712Z,60.74
2023-02-09T06:07:43.794Z,60.74
2023-02-09T06:10:14.440Z,60.73
2023-02-09T06:12:45.110Z,60.85
2023-02-09T06:15:16.690Z,60.85
2023-02-09T06:17:48.735Z,60.81
2023-02-09T06:20:19.701Z,60.61
2023-02-09T06:22:49.049Z,60.68
2023-02-09T06:25:18.886Z,60.90
2023-02-09T06:27:48.246Z,60.74
2023-02-09T06:30:19.142Z,60.52
2023-02-09T06:32:50.957Z,60.77
2023-02-09T06:35:22.512Z,60.71
2023-02-09T06:37:53.205Z,60.69
2023-02-09T06:40:24.350Z,60.88
2023-02-09T06:42:55.736Z,60.71
2023-02-09T06:45:32.558Z,60.56
2023-02-09T06:48:02.862Z,60.08
2023-02-09T06:50:37.139Z,59.68
2023-02-09T06:53:10.462Z,59.15
2023-02-09T06:55:39.888Z,58.70
2023-02-09T06:58:10.966Z,58.50
2023-02-09T07:00:40.483Z,58.23
2023-02-09T07:03:13.085Z,58.22
2023-02-09T07:05:42.524Z,57.93
2023-02-09T07:08:14.070Z,57.53
2023-02-09T07:10:42.867Z,57.43
2023-02-09T07:13:11.856Z,57.05
2023-02-09T07:15:44.145Z,57.15
2023-02-09T07:18:13.220Z,56.90
2023-02-09T07:20:44.689Z,56.46
2023-02-09T07:23:14.286Z,56.82
2023-02-09T07:25:43.810Z,56.91
2023-02-09T07:28:13.305Z,57.23
2023-02-09T07:30:43.534Z,57.29
2023-02-09T07:33:14.400Z,57.12
2023-02-09T07:35:46.905Z,57.63
2023-02-09T07:38:18.257Z,58.02
2023-02-09T07:40:49.554Z,58.55
2023-02-09T07:43:20.146Z,58.98
2023-02-09T07:50:07.527Z,59.28
2023-02-09T07:52:37.544Z,59.62
2023-02-09T07:55:06.795Z,59.58
2023-02-09T07:57:36.191Z,59.73
2023-02-09T08:00:06.801Z,59.68
2023-02-09T08:02:46.581Z,59.84
2023-02-09T08:05:27.976Z,60.03
2023-02-09T08:08:00.269Z,60.03
2023-02-09T08:10:32.271Z,60.01
2023-02-09T08:13:02.598Z,60.04
2023-02-09T08:15:41.637Z,60.07
2023-02-09T08:18:15.225Z,59.97
2023-02-09T08:20:46.123Z,60.05
2023-02-09T08:23:20.361Z,60.01
2023-02-09T08:25:52.017Z,59.88
2023-02-09T08:28:21.725Z,59.89
2023-02-09T08:30:54.131Z,59.47
2023-02-09T08:33:25.230Z,59.59
2023-02-09T08:35:54.518Z,59.75
2023-02-09T08:38:26.880Z,59.50
2023-02-09T08:40:57.364Z,59.63
2023-02-09T08:43:29.072Z,59.75
2023-02-09T08:46:06.381Z,59.81
2023-02-09T08:48:38.757Z,59.52
2023-02-09T08:51:09.636Z,59.74
2023-02-09T08:53:40.982Z,59.78
2023-02-09T08:56:12.798Z,59.63
2023-02-09T08:58:42.964Z,59.85
2023-02-09T09:01:13.761Z,59.85
2023-02-09T09:03:45.584Z,60.08
2023-02-09T09:06:15.448Z,59.90
2023-02-09T09:08:45.842Z,59.97
2023-02-09T09:11:17.784Z,59.81
2023-02-09T09:13:49.115Z,59.85
2023-02-09T09:16:20.913Z,60.26
2023-02-09T09:18:50.922Z,59.91
2023-02-09T09:21:22.425Z,59.97
2023-02-09T09:23:51.325Z,59.92
2023-02-09T09:26:21.951Z,59.98
2023-02-09T09:28:54.763Z,59.69
2023-02-09T09:31:25.768Z,59.69
2023-02-09T09:33:55.736Z,59.38
2023-02-09T09:36:26.708Z,58.69
2023-02-09T09:38:56.814Z,58.32
2023-02-09T09:41:32.311Z,57.16
2023-02-09T09:44:05.440Z,56.66
2023-02-09T09:46:43.224Z,56.16
2023-02-09T09:49:32.750Z,55.31
2023-02-09T09:52:21.996Z,54.75
2023-02-09T09:54:52.737Z,53.86
2023-02-09T09:57:28.107Z,53.44
2023-02-09T09:59:58.544Z,53.50
2023-02-09T10:02:27.533Z,52.85
2023-02-09T10:05:02.145Z,52.70
2023-02-09T10:07:34.574Z,52.51
2023-02-09T10:10:16.201Z,52.05
2023-02-09T10:12:50.202Z,51.99
2023-02-09T10:15:30.584Z,50.94
2023-02-09T10:18:01.460Z,50.76
2023-02-09T10:20:49.453Z,51.58
2023-02-09T10:23:22.213Z,51.58
2023-02-09T10:25:55.581Z,50.71
2023-02-09T10:28:26.972Z,50.44
2023-02-09T10:30:57.557Z,50.27
2023-02-09T10:33:27.751Z,50.71
2023-02-09T10:35:58.217Z,49.87
2023-02-09T10:38:33.057Z,49.95
2023-02-09T10:41:02.443Z,50.07
2023-02-09T10:43:34.065Z,50.14
2023-02-09T10:46:15.037Z,49.67
2023-02-09T10:48:45.621Z,48.96
2023-02-09T10:51:16.277Z,48.82
2023-02-09T10:54:06.462Z,48.96
2023-02-09T10:56:43.709Z,48.40
2023-02-09T10:59:17.960Z,49.17
2023-02-09T11:02:07.096Z,49.37
2023-02-09T11:04:39.018Z,48.72
2023-02-09T11:07:12.764Z,49.03
2023-02-09T11:09:52.273Z,48.36
2023-02-09T11:12:23.168Z,48.41
